Time;durP1;ratioP1;P1;durP2;ratioP2;P2;SDS_P1;SDS_P2;PMS_P1;PMS_P2;Temp;Humidity;BMP_temperature;BMP_pressure;BME280_temperature;BME280_humidity;BME280_pressure;Samples;Min_cycle;Max_cycle;Signal;HPM_P1;HPM_P2
2021/03/04 00:00:45;;;;;;;22.00;9.27;;;;;;;1.22;71.40;100717.47;1661223;86;21180;-61
2021/03/04 00:03:14;;;;;;;26.15;10.93;;;;;;;1.20;71.51;100712.69;1661123;85;21220;-62
2021/03/04 00:05:41;;;;;;;20.82;9.83;;;;;;;1.16;71.58;100711.73;1661226;86;21200;-62
2021/03/04 00:08:09;;;;;;;22.00;10.43;;;;;;;1.13;71.69;100709.29;1661066;85;21584;-62
2021/03/04 00:10:37;;;;;;;22.58;10.68;;;;;;;1.08;71.84;100708.33;1661153;86;21438;-61
2021/03/04 00:13:04;;;;;;;26.25;10.20;;;;;;;1.08;71.89;100701.59;1661054;86;21204;-63
2021/03/04 00:15:32;;;;;;;20.97;9.95;;;;;;;1.08;71.90;100702.08;1661089;86;21427;-62
2021/03/04 00:18:00;;;;;;;19.02;8.55;;;;;;;1.09;71.97;100699.74;1661099;86;21384;-62
2021/03/04 00:20:30;;;;;;;22.17;9.75;;;;;;;1.13;72.10;100695.80;1661323;86;21537;-62
2021/03/04 00:22:57;;;;;;;19.67;8.78;;;;;;;1.15;72.07;100688.42;1661017;86;21396;-62
2021/03/04 00:25:31;;;;;;;18.00;8.58;;;;;;;1.17;72.14;100677.01;1661035;86;21937;-61
2021/03/04 00:27:59;;;;;;;21.62;9.55;;;;;;;1.18;72.22;100682.28;1663043;85;21486;-61
2021/03/04 00:30:26;;;;;;;22.42;10.40;;;;;;;1.20;72.33;100679.45;1666920;85;21173;-61
2021/03/04 00:32:54;;;;;;;23.42;10.90;;;;;;;1.19;72.32;100678.59;1662903;85;21403;-61
2021/03/04 00:35:23;;;;;;;18.85;9.88;;;;;;;1.17;72.40;100681.06;1667397;85;21501;-61
2021/03/04 00:37:50;;;;;;;17.17;8.08;;;;;;;1.18;72.56;100673.33;1677361;85;21205;-61
2021/03/04 00:40:20;;;;;;;17.40;8.35;;;;;;;1.19;72.66;100672.34;1677313;85;21914;-62
2021/03/04 00:42:47;;;;;;;21.50;9.38;;;;;;;1.16;72.80;100662.66;1677651;85;21162;-62
2021/03/04 00:45:18;;;;;;;23.75;10.63;;;;;;;1.08;72.96;100665.16;1677365;85;21225;-61
2021/03/04 00:47:48;;;;;;;20.43;10.03;;;;;;;1.07;73.26;100655.84;1674431;85;21138;-62
2021/03/04 00:50:18;;;;;;;22.07;9.83;;;;;;;1.09;73.41;100653.38;1628839;88;21540;-62
2021/03/04 00:52:45;;;;;;;17.95;8.30;;;;;;;1.10;73.54;100656.44;1621877;88;21586;-62
2021/03/04 00:55:14;;;;;;;21.35;9.05;;;;;;;1.09;73.64;100650.68;1613917;89;21264;-61
2021/03/04 00:57:41;;;;;;;23.00;10.18;;;;;;;1.04;73.85;100649.36;1620549;86;21221;-61
2021/03/04 01:00:11;;;;;;;26.60;10.40;;;;;;;1.02;74.04;100633.30;1641392;87;21951;-61
2021/03/04 01:02:38;;;;;;;20.57;10.00;;;;;;;0.99;74.24;100632.22;1641379;86;21193;-61
2021/03/04 01:05:07;;;;;;;24.92;9.50;;;;;;;0.98;74.51;100631.00;1613781;89;21889;-63
2021/03/04 01:07:36;;;;;;;20.68;8.95;;;;;;;0.99;74.67;100620.08;1641542;87;21233;-62
2021/03/04 01:10:10;;;;;;;23.30;10.30;;;;;;;1.02;74.88;100614.91;1644215;86;21406;-61
2021/03/04 01:12:37;;;;;;;26.23;10.88;;;;;;;1.01;75.05;100611.36;1626501;88;21421;-64
2021/03/04 01:15:15;;;;;;;26.30;10.48;;;;;;;1.05;75.16;100610.59;1641434;87;21223;-61
2021/03/04 01:17:42;;;;;;;29.02;11.03;;;;;;;0.99;75.22;100603.03;1601743;89;21385;-62
2021/03/04 01:22:47;;;;;;;;;;;;;;;0.92;75.68;100587.38;1617408;88;21242;-62
2021/03/04 01:25:16;;;;;;;18.75;6.62;;;;;;;0.87;75.97;100588.75;1641550;87;20216;-61
2021/03/04 01:27:44;;;;;;;29.45;11.18;;;;;;;0.88;76.27;100585.92;1641499;87;21197;-62
2021/03/04 01:30:14;;;;;;;27.13;11.15;;;;;;;0.92;76.42;100585.17;1613776;89;21174;-62
2021/03/04 01:32:42;;;;;;;33.15;11.50;;;;;;;0.98;76.46;100581.95;1641493;87;21574;-62
2021/03/04 01:35:10;;;;;;;29.52;11.00;;;;;;;1.00;76.52;100579.11;1613683;89;21447;-62
2021/03/04 01:37:37;;;;;;;24.55;10.10;;;;;;;1.00;76.50;100571.88;1641285;87;21443;-62
2021/03/04 01:40:10;;;;;;;26.48;10.05;;;;;;;1.03;76.67;100572.10;1613529;89;21220;-61
2021/03/04 01:42:38;;;;;;;25.52;10.15;;;;;;;1.04;76.65;100575.16;1641315;87;21193;-61
2021/03/04 01:45:07;;;;;;;30.30;11.22;;;;;;;1.05;76.63;100563.38;1643994;87;21431;-62
2021/03/04 01:47:35;;;;;;;28.15;10.70;;;;;;;0.98;76.63;100553.62;1627034;88;21932;-62
2021/03/04 01:50:06;;;;;;;27.62;11.10;;;;;;;0.97;76.82;100564.54;1626944;88;21426;-61
2021/03/04 01:52:33;;;;;;;28.17;11.03;;;;;;;0.94;76.99;100559.77;1641494;87;21485;-62
2021/03/04 01:55:01;;;;;;;27.65;10.38;;;;;;;0.88;77.06;100563.00;1613865;89;21440;-61
2021/03/04 01:57:29;;;;;;;33.70;13.45;;;;;;;0.81;77.24;100552.87;1647639;85;21929;-61
2021/03/04 01:59:57;;;;;;;28.98;12.28;;;;;;;0.80;77.51;100558.75;1671728;85;21185;-61
2021/03/04 02:02:25;;;;;;;28.05;11.30;;;;;;;0.79;77.68;100553.48;1671717;85;21595;-62
2021/03/04 02:04:53;;;;;;;32.20;11.28;;;;;;;0.74;77.95;100543.59;1660747;85;21462;-62
2021/03/04 02:08:04;;;;;;;35.28;12.13;;;;;;;0.74;78.12;100543.09;1657897;86;21469;-63
2021/03/04 02:10:47;;;;;;;33.00;13.48;;;;;;;0.76;78.30;100534.39;1647119;86;21330;-62
2021/03/04 02:13:31;;;;;;;28.73;11.43;;;;;;;0.85;78.50;100529.55;1655738;86;21159;-63
2021/03/04 02:16:26;;;;;;;35.33;12.45;;;;;;;0.90;78.46;100521.06;1655667;86;21866;-62
2021/03/04 02:19:01;;;;;;;41.18;13.90;;;;;;;0.89;78.37;100516.16;1651384;86;21187;-62
2021/03/04 02:21:56;;;;;;;34.78;13.95;;;;;;;0.92;78.49;100521.28;1655621;86;21184;-62
2021/03/04 02:24:45;;;;;;;33.05;12.43;;;;;;;1.00;78.58;100518.41;1655697;86;21382;-61
2021/03/04 02:27:16;;;;;;;30.30;12.50;;;;;;;1.05;78.55;100508.08;1655337;86;21382;-62
2021/03/04 02:30:00;;;;;;;36.75;12.05;;;;;;;1.05;78.39;100495.94;1655551;86;21280;-61
2021/03/04 02:32:28;;;;;;;33.65;13.20;;;;;;;1.05;78.45;100493.23;1655366;86;21167;-62
2021/03/04 02:35:10;;;;;;;37.93;12.98;;;;;;;1.08;78.48;100488.42;1655566;86;21913;-63
2021/03/04 02:37:48;;;;;;;39.08;14.78;;;;;;;1.11;78.51;100483.25;1655395;86;21470;-63
2021/03/04 02:40:16;;;;;;;37.17;13.60;;;;;;;1.13;78.48;100478.08;1655405;86;21254;-62
2021/03/04 02:42:43;;;;;;;36.30;13.95;;;;;;;1.13;78.57;100465.94;1655733;86;21195;-61
2021/03/04 02:45:11;;;;;;;37.15;12.53;;;;;;;1.17;78.63;100463.83;1655627;86;21497;-62
2021/03/04 02:47:39;;;;;;;42.30;14.65;;;;;;;1.20;78.59;100455.45;1655768;86;21226;-61
2021/03/04 02:50:09;;;;;;;41.25;16.10;;;;;;;1.22;78.66;100458.87;1655731;86;21171;-61
2021/03/04 02:52:36;;;;;;;37.55;14.20;;;;;;;1.31;78.77;100461.27;1630135;86;21499;-61
2021/03/04 02:55:05;;;;;;;38.35;14.95;;;;;;;1.34;78.68;100459.66;1629847;86;21207;-61
2021/03/04 02:57:34;;;;;;;36.53;13.80;;;;;;;1.34;78.65;100448.86;1657644;85;21532;-62
2021/03/04 03:00:01;;;;;;;43.10;15.05;;;;;;;1.41;78.77;100441.91;1680229;85;21886;-60
2021/03/04 03:02:29;;;;;;;41.50;15.53;;;;;;;1.42;78.65;100440.92;1680603;85;21209;-61
2021/03/04 03:04:57;;;;;;;47.33;16.07;;;;;;;1.44;78.58;100424.95;1680584;85;21181;-61
2021/03/04 03:07:24;;;;;;;38.73;14.73;;;;;;;1.44;78.59;100410.59;1680538;85;21519;-61
2021/03/04 03:09:52;;;;;;;39.73;15.70;;;;;;;1.47;78.60;100403.56;1680453;85;21397;-63
2021/03/04 03:12:19;;;;;;;38.85;14.60;;;;;;;1.46;78.60;100403.20;1683249;85;21203;-61
2021/03/04 03:14:47;;;;;;;44.05;14.70;;;;;;;1.46;78.67;100406.76;1683259;85;21298;-62
2021/03/04 03:17:14;;;;;;;45.58;15.43;;;;;;;1.47;78.73;100405.77;1683243;85;21394;-62
2021/03/04 03:19:44;;;;;;;45.05;16.82;;;;;;;1.47;78.71;100396.31;1680188;85;21985;-62
2021/03/04 03:22:11;;;;;;;45.52;17.20;;;;;;;1.51;78.86;100390.14;1683206;85;21526;-62
2021/03/04 03:24:38;;;;;;;49.58;17.10;;;;;;;1.56;78.92;100384.68;1683261;85;21379;-62
2021/03/04 03:27:06;;;;;;;43.83;16.15;;;;;;;1.63;78.95;100389.52;1683279;85;21475;-61
2021/03/04 03:29:33;;;;;;;45.40;16.97;;;;;;;1.67;78.90;100387.74;1683335;85;21413;-61
2021/03/04 03:32:01;;;;;;;51.13;16.40;;;;;;;1.69;78.84;100380.84;1683433;84;21402;-61
2021/03/04 03:34:28;;;;;;;44.20;16.77;;;;;;;1.72;78.78;100387.32;1683235;85;21417;-60
2021/03/04 03:36:56;;;;;;;44.63;15.78;;;;;;;1.73;78.69;100381.77;1683312;85;21286;-63
2021/03/04 03:39:23;;;;;;;47.15;18.05;;;;;;;1.73;78.66;100372.81;1683187;85;21188;-62
2021/03/04 03:41:51;;;;;;;49.42;16.70;;;;;;;1.72;78.72;100369.77;1683384;85;21438;-61
2021/03/04 03:44:18;;;;;;;52.15;18.85;;;;;;;1.73;78.75;100362.87;1683339;85;21180;-62
2021/03/04 03:46:46;;;;;;;49.40;16.85;;;;;;;1.77;78.78;100362.09;1683324;85;21961;-61
2021/03/04 03:49:15;;;;;;;48.28;17.02;;;;;;;1.84;78.74;100355.13;1683298;85;21305;-63
2021/03/04 03:51:43;;;;;;;41.83;15.35;;;;;;;1.86;78.57;100349.07;1683359;85;21510;-62
2021/03/04 03:54:12;;;;;;;54.03;17.45;;;;;;;1.85;78.49;100341.97;1683273;85;21446;-62
2021/03/04 03:56:39;;;;;;;46.95;17.75;;;;;;;1.84;78.47;100340.26;1683226;85;21433;-62
2021/03/04 03:59:07;;;;;;;43.50;18.40;;;;;;;1.83;78.46;100327.25;1684901;85;21426;-61
2021/03/04 04:01:35;;;;;;;39.50;15.80;;;;;;;1.85;78.44;100333.86;1686309;85;21405;-61
2021/03/04 04:04:03;;;;;;;42.08;15.68;;;;;;;1.88;78.45;100325.47;1657806;86;21475;-61
2021/03/04 04:06:32;;;;;;;52.55;17.70;;;;;;;1.85;78.27;100325.26;1669501;86;21206;-62
2021/03/04 04:08:59;;;;;;;43.55;18.00;;;;;;;1.87;78.30;100319.71;1669628;85;21206;-61
2021/03/04 04:11:29;;;;;;;44.70;17.90;;;;;;;1.92;78.30;100301.22;1686244;85;21406;-61
2021/03/04 04:13:57;;;;;;;43.52;16.55;;;;;;;1.96;78.23;100293.21;1686220;85;21411;-62
2021/03/04 04:16:25;;;;;;;42.95;17.92;;;;;;;1.98;78.14;100293.92;1686152;85;21405;-62
2021/03/04 04:18:53;;;;;;;41.37;17.12;;;;;;;1.98;78.01;100279.06;1662914;85;21477;-62
2021/03/04 04:21:21;;;;;;;46.42;18.32;;;;;;;2.00;77.94;100276.21;1662457;85;21929;-62
2021/03/04 04:23:48;;;;;;;50.23;18.73;;;;;;;2.01;77.86;100265.25;1657692;86;21502;-60
2021/03/04 04:26:16;;;;;;;49.03;17.17;;;;;;;2.03;77.78;100260.56;1669662;86;21564;-62
2021/03/04 04:28:44;;;;;;;48.13;18.05;;;;;;;2.07;77.71;100263.82;1669572;86;21957;-61
2021/03/04 04:31:12;;;;;;;44.08;18.12;;;;;;;2.07;77.50;100263.32;1686146;84;21199;-62
2021/03/04 04:33:39;;;;;;;47.03;18.87;;;;;;;2.03;77.42;100257.00;1686203;85;21215;-62
2021/03/04 04:36:07;;;;;;;45.10;18.23;;;;;;;2.01;77.43;100246.34;1686312;85;21178;-61
2021/03/04 04:38:35;;;;;;;50.70;18.37;;;;;;;2.04;77.42;100247.90;1686291;85;21441;-61
2021/03/04 04:41:02;;;;;;;48.40;18.35;;;;;;;2.03;77.28;100233.53;1686250;85;21410;-61
2021/03/04 04:43:30;;;;;;;51.13;18.20;;;;;;;2.04;77.18;100241.14;1686324;85;21406;-62
2021/03/04 04:45:57;;;;;;;44.70;17.98;;;;;;;2.06;77.09;100239.15;1686165;85;21325;-61
2021/03/04 04:48:25;;;;;;;49.10;19.52;;;;;;;2.06;76.90;100230.54;1686155;85;21420;-61
2021/03/04 04:50:54;;;;;;;45.67;18.92;;;;;;;2.04;76.72;100229.84;1655931;86;21183;-61
2021/03/04 04:53:21;;;;;;;44.15;18.40;;;;;;;2.01;76.65;100226.08;1657933;86;21186;-64
2021/03/04 04:55:50;;;;;;;47.23;18.62;;;;;;;2.00;76.54;100229.78;1658001;86;21405;-62
2021/03/04 04:58:17;;;;;;;47.65;17.95;;;;;;;1.98;76.43;100230.92;1632965;86;21197;-60
2021/03/04 05:00:44;;;;;;;51.25;19.45;;;;;;;1.96;76.30;100222.97;1688590;85;21200;-61
2021/03/04 05:03:12;;;;;;;45.08;18.55;;;;;;;1.96;76.30;100218.06;1688516;85;21909;-61
2021/03/04 05:05:39;;;;;;;42.53;19.10;;;;;;;1.93;76.18;100218.32;1688599;84;21180;-60
2021/03/04 05:08:06;;;;;;;41.55;18.77;;;;;;;1.89;76.06;100211.86;1688636;85;21161;-61
2021/03/04 05:10:33;;;;;;;43.75;18.98;;;;;;;1.86;75.97;100206.75;1688661;85;21439;-62
2021/03/04 05:13:01;;;;;;;42.93;17.50;;;;;;;1.83;75.96;100207.05;1688746;85;21184;-61
2021/03/04 05:15:29;;;;;;;50.35;19.42;;;;;;;1.83;75.92;100200.80;1688681;83;21921;-61
2021/03/04 05:17:56;;;;;;;40.90;18.00;;;;;;;1.84;75.92;100197.09;1688800;85;21365;-61
2021/03/04 05:20:24;;;;;;;43.23;18.55;;;;;;;1.83;75.83;100193.54;1688699;83;21160;-61
2021/03/04 05:22:51;;;;;;;43.60;18.37;;;;;;;1.83;75.77;100185.44;1688734;83;21295;-62
2021/03/04 05:25:19;;;;;;;44.13;18.23;;;;;;;1.82;75.74;100182.87;1688653;85;21367;-62
2021/03/04 05:27:46;;;;;;;49.48;18.12;;;;;;;1.81;75.74;100175.28;1688679;85;21148;-60
2021/03/04 05:30:15;;;;;;;46.58;18.60;;;;;;;1.83;75.66;100182.73;1688691;85;21168;-62
2021/03/04 05:32:43;;;;;;;42.03;18.62;;;;;;;1.86;75.62;100182.94;1688813;85;21524;-62
2021/03/04 05:35:11;;;;;;;45.67;17.65;;;;;;;1.89;75.53;100178.59;1688710;85;21372;-65
2021/03/04 05:37:39;;;;;;;46.63;19.20;;;;;;;1.89;75.42;100175.39;1688926;85;21200;-64
2021/03/04 05:40:09;;;;;;;48.63;18.75;;;;;;;1.90;75.49;100181.64;1688286;85;21165;-63
2021/03/04 05:42:36;;;;;;;42.23;18.32;;;;;;;1.93;75.49;100172.39;1688832;83;21443;-62
2021/03/04 05:45:06;;;;;;;48.60;19.12;;;;;;;1.96;75.45;100162.17;1688858;85;21291;-61
2021/03/04 05:47:33;;;;;;;45.20;18.65;;;;;;;2.00;75.38;100154.63;1688683;83;21411;-62
2021/03/04 05:50:08;;;;;;;45.43;18.87;;;;;;;2.03;75.28;100149.77;1688837;83;21177;-62
2021/03/04 05:52:38;;;;;;;46.15;18.73;;;;;;;2.04;75.17;100146.07;1688707;85;21228;-61
2021/03/04 05:55:06;;;;;;;43.55;18.73;;;;;;;2.07;75.18;100153.03;1688615;83;21464;-63
2021/03/04 05:57:34;;;;;;;45.70;18.87;;;;;;;2.10;75.11;100142.77;1688731;85;21404;-61
2021/03/04 06:00:02;;;;;;;43.73;18.40;;;;;;;2.15;75.10;100143.17;1692191;84;21427;-63
2021/03/04 06:02:31;;;;;;;42.33;16.93;;;;;;;2.18;75.00;100140.17;1694087;84;21285;-64
2021/03/04 06:04:59;;;;;;;47.43;19.85;;;;;;;2.19;74.93;100148.63;1694275;84;21280;-61
2021/03/04 06:07:28;;;;;;;44.55;18.30;;;;;;;2.22;74.99;100134.81;1694171;84;21192;-63
2021/03/04 06:09:55;;;;;;;43.23;19.57;;;;;;;2.29;74.93;100130.15;1694153;84;21170;-64
2021/03/04 06:12:23;;;;;;;48.75;19.95;;;;;;;2.36;74.91;100131.25;1694165;83;21453;-62
2021/03/04 06:14:50;;;;;;;44.67;19.70;;;;;;;2.42;74.89;100128.78;1694098;84;21177;-61
2021/03/04 06:17:18;;;;;;;43.35;18.42;;;;;;;2.48;74.79;100122.77;1694044;84;21528;-63
2021/03/04 06:19:56;;;;;;;42.20;18.77;;;;;;;2.54;74.70;100119.45;1694038;84;21289;-63
2021/03/04 06:22:27;;;;;;;;;;;;;;;2.57;74.56;100113.39;1696438;84;21422;-64
2021/03/04 06:24:56;;;;;;;49.10;20.12;;;;;;;2.60;74.43;100103.14;1694224;84;20266;-63
2021/03/04 06:27:33;;;;;;;47.38;20.37;;;;;;;2.63;74.34;100106.89;1694352;84;21410;-61
2021/03/04 06:30:10;;;;;;;54.05;23.02;;;;;;;2.66;74.27;100098.97;1694283;84;21443;-62
2021/03/04 06:32:39;;;;;;;62.95;28.35;;;;;;;2.69;74.30;100098.16;1694217;84;21456;-61
2021/03/04 06:35:13;;;;;;;64.20;29.90;;;;;;;2.74;74.27;100082.31;1680387;84;21202;-62
2021/03/04 06:37:43;;;;;;;63.92;30.55;;;;;;;2.81;74.29;100086.60;1694198;84;21525;-62
2021/03/04 06:40:31;;;;;;;59.13;26.62;;;;;;;2.83;74.20;100071.91;1694169;84;21383;-63
2021/03/04 06:42:59;;;;;;;55.05;23.25;;;;;;;2.88;74.23;100071.95;1694317;84;21152;-61
2021/03/04 06:45:33;;;;;;;57.55;23.55;;;;;;;2.95;74.23;100064.39;1694239;84;21311;-61
2021/03/04 06:48:16;;;;;;;55.80;23.70;;;;;;;3.00;74.18;100053.95;1694245;84;21354;-61
2021/03/04 06:51:02;;;;;;;52.78;21.65;;;;;;;3.04;74.21;100062.09;1694135;84;21362;-61
2021/03/04 06:53:30;;;;;;;43.68;19.45;;;;;;;3.10;74.28;100058.76;1694064;84;21187;-62
2021/03/04 06:56:06;;;;;;;49.45;19.73;;;;;;;3.19;74.29;100054.25;1694126;84;21206;-64
2021/03/04 06:58:38;;;;;;;43.45;15.15;;;;;;;3.27;74.21;100052.13;1694266;84;21903;-62
2021/03/04 07:01:15;;;;;;;48.68;19.87;;;;;;;3.35;74.12;100043.56;1694105;84;21632;-62
2021/03/04 07:03:50;;;;;;;49.83;20.25;;;;;;;3.46;73.99;100039.72;1694326;84;21171;-62
2021/03/04 07:06:22;;;;;;;50.12;21.48;;;;;;;3.57;73.80;100039.45;1692703;84;21359;-64
2021/03/04 07:08:51;;;;;;;55.23;21.17;;;;;;;3.69;73.53;100030.52;1694096;84;21163;-63
2021/03/04 07:11:23;;;;;;;68.45;33.83;;;;;;;3.80;73.39;100028.38;1694181;84;21436;-63
2021/03/04 07:13:51;;;;;;;46.25;17.87;;;;;;;3.93;73.11;100018.45;1694092;84;21281;-62
2021/03/04 07:16:24;;;;;;;46.55;18.62;;;;;;;4.05;72.83;100027.98;1694183;84;21429;-62
2021/03/04 07:18:54;;;;;;;46.35;20.08;;;;;;;4.17;72.59;100012.76;1694140;84;21459;-64
2021/03/04 07:21:27;;;;;;;43.42;17.60;;;;;;;4.30;72.33;100013.13;1694087;84;21532;-62
2021/03/04 07:23:55;;;;;;;46.20;18.75;;;;;;;4.42;72.05;100017.20;1694124;84;21262;-62
2021/03/04 07:26:22;;;;;;;44.03;18.90;;;;;;;4.50;71.71;100003.65;1694339;84;21556;-64
2021/03/04 07:28:51;;;;;;;42.88;18.48;;;;;;;4.62;71.44;100009.63;1694134;84;21164;-63
2021/03/04 07:31:19;;;;;;;46.30;20.23;;;;;;;4.71;71.04;100005.38;1694045;84;21167;-63
2021/03/04 07:33:48;;;;;;;41.15;17.48;;;;;;;4.80;70.77;99998.59;1694034;84;21543;-62
2021/03/04 07:36:22;;;;;;;42.25;17.48;;;;;;;4.89;70.50;99979.93;1694270;84;21144;-60
2021/03/04 07:39:00;;;;;;;43.92;19.27;;;;;;;5.01;70.04;99979.91;1694178;84;21219;-62
2021/03/04 07:41:44;;;;;;;39.75;18.15;;;;;;;5.12;69.79;99972.77;1694223;84;21540;-62
2021/03/04 07:44:29;;;;;;;46.05;19.05;;;;;;;5.23;69.36;99958.00;1694109;83;21871;-64
2021/03/04 07:46:58;;;;;;;49.50;19.17;;;;;;;5.33;68.82;99954.57;1694138;84;21639;-62
2021/03/04 07:49:41;;;;;;;41.98;18.27;;;;;;;5.43;68.47;99950.29;1693995;84;21485;-62
2021/03/04 07:52:24;;;;;;;39.55;17.32;;;;;;;5.51;68.23;99948.90;1694071;84;21167;-63
2021/03/04 07:54:55;;;;;;;40.52;16.35;;;;;;;5.61;67.82;99944.09;1694039;84;21223;-62
2021/03/04 07:57:25;;;;;;;38.55;17.05;;;;;;;5.68;67.40;99939.13;1694045;83;21408;-61
2021/03/04 07:59:57;;;;;;;39.50;16.60;;;;;;;5.80;67.25;99941.45;1692394;84;21418;-61
2021/03/04 08:02:28;;;;;;;41.75;16.50;;;;;;;5.90;66.75;99947.58;1688635;85;21415;-61
2021/03/04 08:05:13;;;;;;;39.38;17.02;;;;;;;5.99;65.52;99951.42;1688712;85;21372;-62
2021/03/04 08:07:46;;;;;;;39.18;16.30;;;;;;;6.08;64.81;99941.86;1688607;85;21192;-61
2021/03/04 08:10:17;;;;;;;39.90;16.62;;;;;;;6.13;64.29;99927.20;1688456;83;21874;-63
2021/03/04 08:12:58;;;;;;;36.03;16.75;;;;;;;6.18;64.15;99923.43;1688411;85;21188;-61
2021/03/04 08:15:40;;;;;;;36.13;15.75;;;;;;;6.20;63.96;99912.70;1689037;83;21460;-60
2021/03/04 08:18:22;;;;;;;32.73;13.75;;;;;;;6.25;63.58;99923.88;1703063;83;21492;-61
2021/03/04 08:20:51;;;;;;;35.68;15.28;;;;;;;6.29;63.40;99902.09;1699623;83;21781;-63
2021/03/04 08:23:19;;;;;;;35.52;15.63;;;;;;;6.36;63.34;99900.84;1714826;83;21146;-63
2021/03/04 08:25:47;;;;;;;37.75;17.02;;;;;;;6.44;63.10;99907.57;1714970;83;21544;-62
2021/03/04 08:28:25;;;;;;;38.05;16.17;;;;;;;6.51;62.76;99899.55;1714746;83;21196;-63
2021/03/04 08:30:53;;;;;;;38.55;15.93;;;;;;;6.55;62.85;99903.09;1700486;82;21209;-64
2021/03/04 08:33:21;;;;;;;36.75;15.93;;;;;;;6.59;62.55;99881.27;1719220;82;21170;-64
2021/03/04 08:35:50;;;;;;;35.20;16.25;;;;;;;6.64;62.59;99892.97;1714925;82;21400;-62
2021/03/04 08:38:20;;;;;;;33.88;15.72;;;;;;;6.66;62.38;99872.69;1708464;83;21138;-64
2021/03/04 08:40:53;;;;;;;38.50;16.73;;;;;;;6.67;62.36;99890.72;1708472;84;21170;-62
2021/03/04 08:43:28;;;;;;;38.00;17.17;;;;;;;6.73;62.14;99873.31;1708599;84;21198;-63
2021/03/04 08:46:04;;;;;;;37.17;16.77;;;;;;;6.77;62.02;99878.72;1708147;84;21574;-62
2021/03/04 08:48:32;;;;;;;26.35;13.00;;;;;;;6.81;62.01;99881.39;1700347;84;21189;-62
2021/03/04 08:51:05;;;;;;;37.98;17.25;;;;;;;6.83;61.78;99884.78;1707560;84;21162;-63
2021/03/04 08:53:36;;;;;;;34.10;16.12;;;;;;;6.89;61.73;99881.31;1682427;84;21889;-62
2021/03/04 08:56:10;;;;;;;34.27;15.85;;;;;;;6.94;61.48;99872.91;1707820;84;21335;-62
2021/03/04 08:58:44;;;;;;;35.60;16.32;;;;;;;6.96;61.23;99874.08;1707773;84;21098;-63
2021/03/04 09:01:12;;;;;;;34.33;16.35;;;;;;;6.97;61.44;99869.81;1717395;83;21102;-63
2021/03/04 09:03:44;;;;;;;43.85;19.60;;;;;;;7.01;61.28;99858.02;1705016;82;21423;-66
2021/03/04 09:06:16;;;;;;;46.02;19.50;;;;;;;7.05;61.40;99844.88;1714962;83;21320;-65
2021/03/04 09:08:50;;;;;;;41.02;16.67;;;;;;;7.10;61.39;99846.52;1693985;84;21730;-65
2021/03/04 09:11:29;;;;;;;55.33;24.43;;;;;;;7.14;61.05;99847.82;1707748;82;21189;-63
2021/03/04 09:14:10;;;;;;;43.05;19.55;;;;;;;7.15;61.04;99828.59;1690004;83;21083;-65
2021/03/04 09:16:43;;;;;;;38.42;17.52;;;;;;;7.21;61.11;99822.91;1688260;85;21298;-63
2021/03/04 09:19:14;;;;;;;35.38;17.00;;;;;;;7.28;61.00;99818.38;1697968;84;21062;-64
2021/03/04 09:21:41;;;;;;;40.30;18.35;;;;;;;7.36;60.97;99801.08;1709671;83;21059;-62
2021/03/04 09:24:10;;;;;;;38.15;16.80;;;;;;;7.44;60.87;99790.91;1653184;85;21085;-65
2021/03/04 09:26:37;;;;;;;36.42;16.52;;;;;;;7.53;60.70;99795.72;1641115;85;21952;-64
2021/03/04 09:29:05;;;;;;;37.93;16.73;;;;;;;7.59;60.39;99803.13;1670650;86;21350;-64
2021/03/04 09:31:33;;;;;;;37.98;16.65;;;;;;;7.62;60.13;99785.02;1688409;85;21081;-71
2021/03/04 09:34:03;;;;;;;36.25;17.27;;;;;;;7.69;60.16;99792.75;1689612;85;21218;-67
2021/03/04 09:36:30;;;;;;;37.25;16.35;;;;;;;7.78;59.50;99787.48;1663968;86;21829;-68
2021/03/04 09:38:58;;;;;;;34.83;17.07;;;;;;;7.86;59.38;99786.02;1674425;85;21479;-68
2021/03/04 09:41:25;;;;;;;38.98;17.45;;;;;;;7.94;59.36;99779.07;1670837;86;21085;-68
2021/03/04 09:44:03;;;;;;;36.80;16.73;;;;;;;8.04;58.89;99773.80;1684709;85;21808;-63
2021/03/04 09:46:38;;;;;;;33.73;16.35;;;;;;;8.11;58.66;99768.72;1666297;85;21108;-65
2021/03/04 09:49:12;;;;;;;37.55;17.35;;;;;;;8.16;58.51;99763.52;1630797;88;21363;-69
2021/03/04 09:51:41;;;;;;;36.05;17.82;;;;;;;8.25;58.28;99761.48;1681577;85;21370;-65
2021/03/04 09:54:09;;;;;;;35.43;16.85;;;;;;;8.31;57.99;99753.86;1686405;85;21285;-66
2021/03/04 09:56:38;;;;;;;32.98;17.57;;;;;;;8.37;57.84;99749.01;1683394;85;21072;-66
2021/03/04 09:59:06;;;;;;;38.58;18.50;;;;;;;8.43;57.83;99740.02;1686633;85;21321;-66
2021/03/04 10:01:35;;;;;;;36.05;17.27;;;;;;;8.50;57.21;99743.66;1696522;83;21189;-64
2021/03/04 10:04:06;;;;;;;33.75;15.85;;;;;;;8.58;57.08;99739.41;1664764;83;21147;-69
2021/03/04 10:06:37;;;;;;;35.52;16.67;;;;;;;8.69;56.76;99738.52;1662662;86;21814;-65
2021/03/04 10:09:05;;;;;;;35.48;17.12;;;;;;;8.73;56.43;99735.19;1662491;86;21316;-64
2021/03/04 10:11:38;;;;;;;38.15;17.50;;;;;;;8.76;56.44;99724.38;1673514;85;21391;-66
2021/03/04 10:14:13;;;;;;;38.98;17.98;;;;;;;8.79;56.51;99723.45;1682036;84;21668;-66
2021/03/04 10:16:40;;;;;;;35.45;16.95;;;;;;;8.88;56.54;99724.96;1693782;84;21340;-65
2021/03/04 10:19:08;;;;;;;39.85;17.82;;;;;;;8.99;56.34;99715.34;1705659;83;21190;-67
2021/03/04 10:21:35;;;;;;;36.48;16.70;;;;;;;9.09;55.85;99722.62;1714718;83;21080;-66
2021/03/04 10:24:04;;;;;;;40.30;17.92;;;;;;;9.15;54.97;99716.38;1714827;83;21340;-67
2021/03/04 10:26:32;;;;;;;37.40;16.70;;;;;;;9.19;55.16;99693.57;1710872;83;21148;-67
2021/03/04 10:28:59;;;;;;;34.27;16.75;;;;;;;9.27;55.09;99689.80;1703118;83;21098;-66
2021/03/04 10:31:27;;;;;;;34.83;17.10;;;;;;;9.35;54.97;99693.71;1702966;84;21760;-64
2021/03/04 10:33:54;;;;;;;37.28;17.35;;;;;;;9.41;54.76;99677.84;1714200;83;21217;-66
2021/03/04 10:36:22;;;;;;;36.45;17.00;;;;;;;9.47;54.33;99677.86;1714645;83;21280;-65
2021/03/04 10:38:50;;;;;;;36.63;17.45;;;;;;;9.54;54.23;99669.66;1709895;83;21303;-64
2021/03/04 10:41:17;;;;;;;36.40;18.02;;;;;;;9.65;53.90;99675.88;1700838;83;21672;-67
2021/03/04 10:43:45;;;;;;;33.28;16.80;;;;;;;9.74;53.72;99663.67;1688494;84;21464;-66
2021/03/04 10:46:12;;;;;;;35.78;17.35;;;;;;;9.82;53.44;99654.44;1688861;82;21088;-66
2021/03/04 10:48:40;;;;;;;37.65;16.90;;;;;;;9.93;53.59;99653.80;1713949;82;21059;-63
2021/03/04 10:51:08;;;;;;;33.78;17.45;;;;;;;10.07;53.48;99656.84;1705425;84;21097;-66
2021/03/04 10:53:35;;;;;;;33.67;16.90;;;;;;;10.16;52.82;99642.40;1703101;84;21154;-64
2021/03/04 10:56:04;;;;;;;35.90;16.73;;;;;;;10.25;52.28;99635.67;1703128;84;21337;-68
2021/03/04 10:58:31;;;;;;;34.65;16.52;;;;;;;10.30;52.16;99622.71;1703354;84;21180;-66
2021/03/04 11:00:58;;;;;;;31.60;16.10;;;;;;;10.38;51.97;99621.94;1707952;83;21185;-66
2021/03/04 11:03:26;;;;;;;29.00;15.00;;;;;;;10.47;51.73;99622.05;1717151;82;21121;-66
2021/03/04 11:05:54;;;;;;;32.95;16.80;;;;;;;10.53;51.25;99607.17;1719982;83;21129;-67
2021/03/04 11:08:22;;;;;;;34.58;16.00;;;;;;;10.52;51.18;99610.45;1720148;83;21126;-64
2021/03/04 11:10:49;;;;;;;35.85;16.85;;;;;;;10.47;50.66;99612.47;1724438;82;21179;-64
2021/03/04 11:13:17;;;;;;;31.55;16.20;;;;;;;10.42;51.45;99608.16;1709662;83;21783;-65
2021/03/04 11:15:44;;;;;;;36.23;17.85;;;;;;;10.45;51.52;99617.32;1693572;83;21561;-64
2021/03/04 11:18:12;;;;;;;32.85;16.27;;;;;;;10.46;51.59;99609.41;1709996;83;21181;-64
2021/03/04 11:20:41;;;;;;;30.45;14.85;;;;;;;10.50;51.66;99623.52;1720399;83;21066;-64
2021/03/04 11:23:09;;;;;;;31.48;15.13;;;;;;;10.50;50.87;99619.41;1720354;83;21818;-65
2021/03/04 11:25:38;;;;;;;31.05;15.35;;;;;;;10.45;50.71;99626.91;1720119;83;21067;-65
2021/03/04 11:28:08;;;;;;;34.98;16.52;;;;;;;10.38;50.74;99613.73;1691112;83;21338;-68
2021/03/04 11:30:36;;;;;;;33.55;15.80;;;;;;;10.34;51.12;99602.89;1715582;83;21029;-67
2021/03/04 11:33:04;;;;;;;35.98;17.00;;;;;;;10.36;51.41;99606.26;1718087;82;21048;-66
2021/03/04 11:35:33;;;;;;;31.50;16.17;;;;;;;10.36;51.18;99599.41;1692826;83;21074;-64